sensor_id;sensor_type;location;lat;lon;timestamp;P1;durP1;ratioP1;P2;durP2;ratioP2
44189;SDS011;29856;52.144;5.430;2024-03-02T00:00:58;2.03;;;1.17;;
44189;SDS011;29856;52.144;5.430;2024-03-02T00:03:24;1.48;;;1.05;;
44189;SDS011;29856;52.144;5.430;2024-03-02T00:05:50;4.88;;;1.10;;
44189;SDS011;29856;52.144;5.430;2024-03-02T00:08:19;2.63;;;1.20;;
44189;SDS011;29856;52.144;5.430;2024-03-02T00:10:47;2.97;;;1.60;;
44189;SDS011;29856;52.144;5.430;2024-03-02T00:13:13;1.98;;;1.25;;
44189;SDS011;29856;52.144;5.430;2024-03-02T00:15:46;2.88;;;1.25;;
44189;SDS011;29856;52.144;5.430;2024-03-02T00:18:13;2.50;;;1.13;;
44189;SDS011;29856;52.144;5.430;2024-03-02T00:20:40;4.78;;;1.10;;
44189;SDS011;29856;52.144;5.430;2024-03-02T00:23:06;6.82;;;1.40;;
44189;SDS011;29856;52.144;5.430;2024-03-02T00:25:46;1.70;;;1.02;;
44189;SDS011;29856;52.144;5.430;2024-03-02T00:28:23;3.45;;;1.08;;
44189;SDS011;29856;52.144;5.430;2024-03-02T00:30:56;2.50;;;1.30;;
44189;SDS011;29856;52.144;5.430;2024-03-02T00:33:23;3.67;;;1.70;;
44189;SDS011;29856;52.144;5.430;2024-03-02T00:35:49;3.50;;;1.80;;
44189;SDS011;29856;52.144;5.430;2024-03-02T00:38:15;4.00;;;1.40;;
44189;SDS011;29856;52.144;5.430;2024-03-02T00:40:41;4.30;;;2.10;;
44189;SDS011;29856;52.144;5.430;2024-03-02T00:45:46;4.53;;;2.33;;
44189;SDS011;29856;52.144;5.430;2024-03-02T00:48:13;11.48;;;2.65;;
44189;SDS011;29856;52.144;5.430;2024-03-02T00:50:40;9.02;;;2.03;;
44189;SDS011;29856;52.144;5.430;2024-03-02T00:53:08;6.03;;;3.08;;
44189;SDS011;29856;52.144;5.430;2024-03-02T00:55:36;1.55;;;1.25;;
44189;SDS011;29856;52.144;5.430;2024-03-02T00:58:02;5.72;;;2.42;;
44189;SDS011;29856;52.144;5.430;2024-03-02T01:00:28;2.60;;;1.40;;
44189;SDS011;29856;52.144;5.430;2024-03-02T01:02:54;1.27;;;0.90;;
44189;SDS011;29856;52.144;5.430;2024-03-02T01:05:19;4.55;;;2.42;;
44189;SDS011;29856;52.144;5.430;2024-03-02T01:07:45;3.90;;;1.83;;
44189;SDS011;29856;52.144;5.430;2024-03-02T01:10:11;3.63;;;2.22;;
44189;SDS011;29856;52.144;5.430;2024-03-02T01:12:37;2.55;;;1.05;;
44189;SDS011;29856;52.144;5.430;2024-03-02T01:15:03;4.03;;;1.92;;
44189;SDS011;29856;52.144;5.430;2024-03-02T01:17:29;2.60;;;1.33;;
44189;SDS011;29856;52.144;5.430;2024-03-02T01:19:55;1.80;;;1.02;;
44189;SDS011;29856;52.144;5.430;2024-03-02T01:22:21;7.45;;;3.55;;
44189;SDS011;29856;52.144;5.430;2024-03-02T01:24:48;2.33;;;1.00;;
44189;SDS011;29856;52.144;5.430;2024-03-02T01:27:14;2.10;;;0.80;;
44189;SDS011;29856;52.144;5.430;2024-03-02T01:29:40;1.10;;;0.75;;
44189;SDS011;29856;52.144;5.430;2024-03-02T01:32:06;2.15;;;1.17;;
44189;SDS011;29856;52.144;5.430;2024-03-02T01:34:32;3.17;;;1.75;;
44189;SDS011;29856;52.144;5.430;2024-03-02T01:36:58;1.80;;;0.80;;
44189;SDS011;29856;52.144;5.430;2024-03-02T01:39:23;2.38;;;1.40;;
44189;SDS011;29856;52.144;5.430;2024-03-02T01:41:49;1.10;;;0.65;;
44189;SDS011;29856;52.144;5.430;2024-03-02T01:44:15;1.27;;;0.63;;
44189;SDS011;29856;52.144;5.430;2024-03-02T01:46:41;0.75;;;0.68;;
44189;SDS011;29856;52.144;5.430;2024-03-02T01:49:07;1.95;;;1.10;;
44189;SDS011;29856;52.144;5.430;2024-03-02T01:51:33;1.00;;;0.85;;
44189;SDS011;29856;52.144;5.430;2024-03-02T01:53:59;1.02;;;0.60;;
44189;SDS011;29856;52.144;5.430;2024-03-02T01:56:25;1.10;;;0.57;;
44189;SDS011;29856;52.144;5.430;2024-03-02T01:58:50;0.60;;;0.55;;
44189;SDS011;29856;52.144;5.430;2024-03-02T02:01:16;2.13;;;0.50;;
44189;SDS011;29856;52.144;5.430;2024-03-02T02:03:43;1.08;;;0.63;;
44189;SDS011;29856;52.144;5.430;2024-03-02T02:06:09;2.50;;;0.77;;
44189;SDS011;29856;52.144;5.430;2024-03-02T02:08:36;0.95;;;0.82;;
44189;SDS011;29856;52.144;5.430;2024-03-02T02:11:02;0.80;;;0.73;;
44189;SDS011;29856;52.144;5.430;2024-03-02T02:13:28;1.58;;;0.88;;
44189;SDS011;29856;52.144;5.430;2024-03-02T02:15:54;1.60;;;1.02;;
44189;SDS011;29856;52.144;5.430;2024-03-02T02:18:20;1.45;;;0.80;;
44189;SDS011;29856;52.144;5.430;2024-03-02T02:20:46;0.93;;;0.70;;
44189;SDS011;29856;52.144;5.430;2024-03-02T02:23:12;0.60;;;0.60;;
44189;SDS011;29856;52.144;5.430;2024-03-02T02:25:38;2.80;;;1.38;;
44189;SDS011;29856;52.144;5.430;2024-03-02T02:28:04;2.38;;;1.10;;
44189;SDS011;29856;52.144;5.430;2024-03-02T02:30:30;0.68;;;0.68;;
44189;SDS011;29856;52.144;5.430;2024-03-02T02:32:56;0.93;;;0.60;;
44189;SDS011;29856;52.144;5.430;2024-03-02T02:35:22;0.52;;;0.52;;
44189;SDS011;29856;52.144;5.430;2024-03-02T02:37:48;0.73;;;0.73;;
44189;SDS011;29856;52.144;5.430;2024-03-02T02:40:15;1.30;;;0.80;;
44189;SDS011;29856;52.144;5.430;2024-03-02T02:42:41;1.50;;;0.93;;
44189;SDS011;29856;52.144;5.430;2024-03-02T02:45:07;0.80;;;0.57;;
44189;SDS011;29856;52.144;5.430;2024-03-02T02:47:33;2.33;;;0.60;;
44189;SDS011;29856;52.144;5.430;2024-03-02T02:49:59;1.77;;;0.60;;
44189;SDS011;29856;52.144;5.430;2024-03-02T02:52:24;1.10;;;0.50;;
44189;SDS011;29856;52.144;5.430;2024-03-02T02:54:50;1.98;;;0.80;;
44189;SDS011;29856;52.144;5.430;2024-03-02T02:57:16;2.38;;;0.63;;
44189;SDS011;29856;52.144;5.430;2024-03-02T02:59:42;3.75;;;0.60;;
44189;SDS011;29856;52.144;5.430;2024-03-02T03:02:08;1.35;;;0.60;;
44189;SDS011;29856;52.144;5.430;2024-03-02T03:04:34;1.20;;;0.60;;
44189;SDS011;29856;52.144;5.430;2024-03-02T03:07:00;0.45;;;0.45;;
44189;SDS011;29856;52.144;5.430;2024-03-02T03:09:25;0.82;;;0.45;;
44189;SDS011;29856;52.144;5.430;2024-03-02T03:11:51;0.60;;;0.60;;
44189;SDS011;29856;52.144;5.430;2024-03-02T03:14:17;0.88;;;0.50;;
44189;SDS011;29856;52.144;5.430;2024-03-02T03:16:45;1.08;;;0.50;;
44189;SDS011;29856;52.144;5.430;2024-03-02T03:19:11;2.20;;;1.02;;
44189;SDS011;29856;52.144;5.430;2024-03-02T03:21:37;1.40;;;0.50;;
44189;SDS011;29856;52.144;5.430;2024-03-02T03:24:03;0.50;;;0.50;;
44189;SDS011;29856;52.144;5.430;2024-03-02T03:26:29;0.55;;;0.55;;
44189;SDS011;29856;52.144;5.430;2024-03-02T03:28:55;0.80;;;0.50;;
44189;SDS011;29856;52.144;5.430;2024-03-02T03:31:21;0.63;;;0.43;;
44189;SDS011;29856;52.144;5.430;2024-03-02T03:33:47;0.80;;;0.45;;
44189;SDS011;29856;52.144;5.430;2024-03-02T03:36:12;1.58;;;0.40;;
44189;SDS011;29856;52.144;5.430;2024-03-02T03:38:38;0.98;;;0.40;;
44189;SDS011;29856;52.144;5.430;2024-03-02T03:41:04;2.92;;;0.40;;
44189;SDS011;29856;52.144;5.430;2024-03-02T03:43:30;0.82;;;0.57;;
44189;SDS011;29856;52.144;5.430;2024-03-02T03:45:56;0.73;;;0.30;;
44189;SDS011;29856;52.144;5.430;2024-03-02T03:48:22;1.17;;;0.30;;
44189;SDS011;29856;52.144;5.430;2024-03-02T03:50:48;2.20;;;0.30;;
44189;SDS011;29856;52.144;5.430;2024-03-02T03:53:14;1.45;;;0.50;;
44189;SDS011;29856;52.144;5.430;2024-03-02T03:55:40;0.52;;;0.47;;
44189;SDS011;29856;52.144;5.430;2024-03-02T03:58:05;0.68;;;0.50;;
44189;SDS011;29856;52.144;5.430;2024-03-02T04:00:31;0.45;;;0.43;;
44189;SDS011;29856;52.144;5.430;2024-03-02T04:02:57;1.38;;;0.30;;
44189;SDS011;29856;52.144;5.430;2024-03-02T04:05:23;1.20;;;0.55;;
44189;SDS011;29856;52.144;5.430;2024-03-02T04:07:49;0.88;;;0.50;;
44189;SDS011;29856;52.144;5.430;2024-03-02T04:10:15;0.93;;;0.93;;
44189;SDS011;29856;52.144;5.430;2024-03-02T04:12:41;3.15;;;0.55;;
44189;SDS011;29856;52.144;5.430;2024-03-02T04:15:07;0.75;;;0.60;;
44189;SDS011;29856;52.144;5.430;2024-03-02T04:17:33;2.33;;;0.60;;
44189;SDS011;29856;52.144;5.430;2024-03-02T04:19:59;1.85;;;0.50;;
44189;SDS011;29856;52.144;5.430;2024-03-02T04:22:25;1.63;;;0.52;;
44189;SDS011;29856;52.144;5.430;2024-03-02T04:24:51;0.70;;;0.50;;
44189;SDS011;29856;52.144;5.430;2024-03-02T04:27:17;1.95;;;0.50;;
44189;SDS011;29856;52.144;5.430;2024-03-02T04:29:43;0.82;;;0.50;;
44189;SDS011;29856;52.144;5.430;2024-03-02T04:32:09;0.77;;;0.47;;
44189;SDS011;29856;52.144;5.430;2024-03-02T04:34:35;1.45;;;0.45;;
44189;SDS011;29856;52.144;5.430;2024-03-02T04:37:01;0.93;;;0.50;;
44189;SDS011;29856;52.144;5.430;2024-03-02T04:39:27;1.17;;;0.70;;
44189;SDS011;29856;52.144;5.430;2024-03-02T04:41:53;1.98;;;0.60;;
44189;SDS011;29856;52.144;5.430;2024-03-02T04:44:18;1.13;;;0.60;;
44189;SDS011;29856;52.144;5.430;2024-03-02T04:46:44;0.43;;;0.40;;
44189;SDS011;29856;52.144;5.430;2024-03-02T04:49:10;1.52;;;0.68;;
44189;SDS011;29856;52.144;5.430;2024-03-02T04:51:36;1.90;;;0.45;;
44189;SDS011;29856;52.144;5.430;2024-03-02T04:54:02;0.77;;;0.40;;
44189;SDS011;29856;52.144;5.430;2024-03-02T04:56:28;0.57;;;0.55;;
44189;SDS011;29856;52.144;5.430;2024-03-02T04:58:54;1.45;;;0.50;;
44189;SDS011;29856;52.144;5.430;2024-03-02T05:01:20;0.45;;;0.40;;
44189;SDS011;29856;52.144;5.430;2024-03-02T05:03:45;1.95;;;1.20;;
44189;SDS011;29856;52.144;5.430;2024-03-02T05:06:11;1.42;;;0.52;;
44189;SDS011;29856;52.144;5.430;2024-03-02T05:08:37;1.42;;;0.30;;
44189;SDS011;29856;52.144;5.430;2024-03-02T05:11:03;2.00;;;0.57;;
44189;SDS011;29856;52.144;5.430;2024-03-02T05:13:29;0.80;;;0.52;;
44189;SDS011;29856;52.144;5.430;2024-03-02T05:15:56;2.75;;;0.50;;
44189;SDS011;29856;52.144;5.430;2024-03-02T05:18:22;1.65;;;0.52;;
44189;SDS011;29856;52.144;5.430;2024-03-02T05:20:47;1.48;;;0.60;;
44189;SDS011;29856;52.144;5.430;2024-03-02T05:23:13;1.42;;;0.57;;
44189;SDS011;29856;52.144;5.430;2024-03-02T05:25:39;1.55;;;0.60;;
44189;SDS011;29856;52.144;5.430;2024-03-02T05:28:05;1.15;;;0.60;;
44189;SDS011;29856;52.144;5.430;2024-03-02T05:30:31;3.17;;;0.57;;
44189;SDS011;29856;52.144;5.430;2024-03-02T05:32:57;1.25;;;0.50;;
44189;SDS011;29856;52.144;5.430;2024-03-02T05:35:23;0.60;;;0.47;;
44189;SDS011;29856;52.144;5.430;2024-03-02T05:37:48;0.68;;;0.60;;
44189;SDS011;29856;52.144;5.430;2024-03-02T05:40:14;1.35;;;0.40;;
44189;SDS011;29856;52.144;5.430;2024-03-02T05:42:40;0.50;;;0.50;;
44189;SDS011;29856;52.144;5.430;2024-03-02T05:45:06;2.83;;;0.50;;
44189;SDS011;29856;52.144;5.430;2024-03-02T05:47:32;2.20;;;0.50;;
44189;SDS011;29856;52.144;5.430;2024-03-02T05:49:58;2.53;;;0.68;;
44189;SDS011;29856;52.144;5.430;2024-03-02T05:52:24;3.72;;;0.50;;
44189;SDS011;29856;52.144;5.430;2024-03-02T05:54:50;2.78;;;0.50;;
44189;SDS011;29856;52.144;5.430;2024-03-02T05:57:16;4.03;;;0.50;;
44189;SDS011;29856;52.144;5.430;2024-03-02T05:59:42;4.00;;;0.80;;
44189;SDS011;29856;52.144;5.430;2024-03-02T06:02:07;2.95;;;0.57;;
44189;SDS011;29856;52.144;5.430;2024-03-02T06:04:33;2.92;;;0.68;;
44189;SDS011;29856;52.144;5.430;2024-03-02T06:06:59;5.00;;;0.70;;
44189;SDS011;29856;52.144;5.430;2024-03-02T06:09:25;1.73;;;0.63;;
44189;SDS011;29856;52.144;5.430;2024-03-02T06:11:51;0.73;;;0.50;;
44189;SDS011;29856;52.144;5.430;2024-03-02T06:14:17;2.83;;;0.40;;
44189;SDS011;29856;52.144;5.430;2024-03-02T06:16:43;2.22;;;0.43;;
44189;SDS011;29856;52.144;5.430;2024-03-02T06:19:08;1.50;;;0.50;;
44189;SDS011;29856;52.144;5.430;2024-03-02T06:21:34;1.58;;;0.70;;
44189;SDS011;29856;52.144;5.430;2024-03-02T06:24:00;1.90;;;0.57;;
44189;SDS011;29856;52.144;5.430;2024-03-02T06:26:26;1.85;;;0.50;;
44189;SDS011;29856;52.144;5.430;2024-03-02T06:28:52;3.22;;;0.70;;
44189;SDS011;29856;52.144;5.430;2024-03-02T06:31:18;1.98;;;0.70;;
44189;SDS011;29856;52.144;5.430;2024-03-02T06:33:44;3.83;;;0.73;;
44189;SDS011;29856;52.144;5.430;2024-03-02T06:36:10;4.35;;;0.80;;
44189;SDS011;29856;52.144;5.430;2024-03-02T06:38:35;3.35;;;0.70;;
44189;SDS011;29856;52.144;5.430;2024-03-02T06:41:01;1.75;;;0.60;;
44189;SDS011;29856;52.144;5.430;2024-03-02T06:43:27;0.95;;;0.60;;
44189;SDS011;29856;52.144;5.430;2024-03-02T06:45:53;1.92;;;1.33;;
44189;SDS011;29856;52.144;5.430;2024-03-02T06:48:19;1.20;;;0.40;;
44189;SDS011;29856;52.144;5.430;2024-03-02T06:50:48;0.50;;;0.50;;
44189;SDS011;29856;52.144;5.430;2024-03-02T06:53:14;2.90;;;0.70;;
44189;SDS011;29856;52.144;5.430;2024-03-02T06:55:40;1.85;;;0.40;;
44189;SDS011;29856;52.144;5.430;2024-03-02T06:58:06;1.35;;;0.50;;
44189;SDS011;29856;52.144;5.430;2024-03-02T07:00:32;2.05;;;0.60;;
44189;SDS011;29856;52.144;5.430;2024-03-02T07:02:58;1.45;;;0.55;;
44189;SDS011;29856;52.144;5.430;2024-03-02T07:05:24;2.60;;;0.73;;
44189;SDS011;29856;52.144;5.430;2024-03-02T07:07:49;2.45;;;0.60;;
44189;SDS011;29856;52.144;5.430;2024-03-02T07:10:15;3.88;;;0.60;;
44189;SDS011;29856;52.144;5.430;2024-03-02T07:12:41;0.68;;;0.50;;
44189;SDS011;29856;52.144;5.430;2024-03-02T07:15:07;2.10;;;0.50;;
44189;SDS011;29856;52.144;5.430;2024-03-02T07:17:33;4.40;;;0.70;;
44189;SDS011;29856;52.144;5.430;2024-03-02T07:19:59;1.42;;;0.50;;
44189;SDS011;29856;52.144;5.430;2024-03-02T07:22:25;4.53;;;0.43;;
44189;SDS011;29856;52.144;5.430;2024-03-02T07:24:51;2.55;;;0.55;;
44189;SDS011;29856;52.144;5.430;2024-03-02T07:27:17;3.70;;;0.82;;
44189;SDS011;29856;52.144;5.430;2024-03-02T07:29:43;1.02;;;0.60;;
44189;SDS011;29856;52.144;5.430;2024-03-02T07:32:09;5.32;;;0.60;;
44189;SDS011;29856;52.144;5.430;2024-03-02T07:34:35;1.92;;;0.60;;
44189;SDS011;29856;52.144;5.430;2024-03-02T07:37:01;4.35;;;1.00;;
44189;SDS011;29856;52.144;5.430;2024-03-02T07:39:27;1.65;;;0.68;;
44189;SDS011;29856;52.144;5.430;2024-03-02T07:41:53;2.80;;;0.93;;
44189;SDS011;29856;52.144;5.430;2024-03-02T07:44:19;3.53;;;0.70;;
44189;SDS011;29856;52.144;5.430;2024-03-02T07:46:46;1.75;;;0.65;;
44189;SDS011;29856;52.144;5.430;2024-03-02T07:49:12;1.65;;;0.60;;
44189;SDS011;29856;52.144;5.430;2024-03-02T07:51:38;3.70;;;0.70;;
44189;SDS011;29856;52.144;5.430;2024-03-02T07:54:04;1.17;;;0.63;;
44189;SDS011;29856;52.144;5.430;2024-03-02T07:56:30;1.25;;;0.60;;
44189;SDS011;29856;52.144;5.430;2024-03-02T07:58:56;0.73;;;0.40;;
44189;SDS011;29856;52.144;5.430;2024-03-02T08:01:22;3.55;;;0.75;;
44189;SDS011;29856;52.144;5.430;2024-03-02T08:03:48;1.55;;;0.98;;
44189;SDS011;29856;52.144;5.430;2024-03-02T08:06:14;2.28;;;0.60;;
44189;SDS011;29856;52.144;5.430;2024-03-02T08:08:40;2.00;;;0.45;;
44189;SDS011;29856;52.144;5.430;2024-03-02T08:11:06;0.65;;;0.52;;
44189;SDS011;29856;52.144;5.430;2024-03-02T08:13:31;2.75;;;0.50;;
44189;SDS011;29856;52.144;5.430;2024-03-02T08:15:57;4.40;;;1.00;;
44189;SDS011;29856;52.144;5.430;2024-03-02T08:18:23;2.72;;;0.90;;
44189;SDS011;29856;52.144;5.430;2024-03-02T08:20:49;1.67;;;0.73;;
44189;SDS011;29856;52.144;5.430;2024-03-02T08:23:15;2.40;;;0.60;;
44189;SDS011;29856;52.144;5.430;2024-03-02T08:25:41;0.93;;;0.70;;
44189;SDS011;29856;52.144;5.430;2024-03-02T08:28:07;1.95;;;0.57;;
44189;SDS011;29856;52.144;5.430;2024-03-02T08:30:33;1.75;;;0.60;;
44189;SDS011;29856;52.144;5.430;2024-03-02T08:33:01;2.08;;;0.80;;
44189;SDS011;29856;52.144;5.430;2024-03-02T08:35:27;2.67;;;0.60;;
44189;SDS011;29856;52.144;5.430;2024-03-02T08:37:53;2.33;;;0.70;;
44189;SDS011;29856;52.144;5.430;2024-03-02T08:40:19;3.10;;;0.80;;
44189;SDS011;29856;52.144;5.430;2024-03-02T08:42:45;1.95;;;0.60;;
44189;SDS011;29856;52.144;5.430;2024-03-02T08:45:11;2.13;;;1.00;;
44189;SDS011;29856;52.144;5.430;2024-03-02T08:47:37;3.40;;;0.60;;
44189;SDS011;29856;52.144;5.430;2024-03-02T08:50:04;2.38;;;0.70;;
44189;SDS011;29856;52.144;5.430;2024-03-02T08:52:30;5.45;;;1.00;;
44189;SDS011;29856;52.144;5.430;2024-03-02T08:54:56;3.03;;;0.88;;
44189;SDS011;29856;52.144;5.430;2024-03-02T08:57:21;3.20;;;0.82;;
44189;SDS011;29856;52.144;5.430;2024-03-02T08:59:47;3.75;;;0.70;;
44189;SDS011;29856;52.144;5.430;2024-03-02T09:02:13;5.03;;;0.70;;
44189;SDS011;29856;52.144;5.430;2024-03-02T09:04:39;4.78;;;1.05;;
44189;SDS011;29856;52.144;5.430;2024-03-02T09:07:05;5.57;;;0.80;;
44189;SDS011;29856;52.144;5.430;2024-03-02T09:09:31;4.50;;;0.73;;
44189;SDS011;29856;52.144;5.430;2024-03-02T09:11:57;4.55;;;0.70;;
44189;SDS011;29856;52.144;5.430;2024-03-02T09:14:23;2.55;;;0.75;;
44189;SDS011;29856;52.144;5.430;2024-03-02T09:16:49;5.32;;;0.90;;
44189;SDS011;29856;52.144;5.430;2024-03-02T09:19:15;7.82;;;1.05;;
44189;SDS011;29856;52.144;5.430;2024-03-02T09:21:41;4.65;;;1.05;;
44189;SDS011;29856;52.144;5.430;2024-03-02T09:24:07;6.03;;;1.00;;
44189;SDS011;29856;52.144;5.430;2024-03-02T09:26:33;5.90;;;1.05;;
44189;SDS011;29856;52.144;5.430;2024-03-02T09:28:59;4.60;;;0.90;;
44189;SDS011;29856;52.144;5.430;2024-03-02T09:31:25;5.30;;;1.00;;
44189;SDS011;29856;52.144;5.430;2024-03-02T09:33:51;2.78;;;0.80;;
44189;SDS011;29856;52.144;5.430;2024-03-02T09:36:17;3.22;;;0.88;;
44189;SDS011;29856;52.144;5.430;2024-03-02T09:38:43;5.82;;;1.20;;
44189;SDS011;29856;52.144;5.430;2024-03-02T09:41:09;5.65;;;0.88;;
44189;SDS011;29856;52.144;5.430;2024-03-02T09:43:35;4.60;;;1.20;;
44189;SDS011;29856;52.144;5.430;2024-03-02T09:46:01;3.30;;;0.80;;
44189;SDS011;29856;52.144;5.430;2024-03-02T09:48:27;5.82;;;1.05;;
44189;SDS011;29856;52.144;5.430;2024-03-02T09:50:53;7.30;;;1.20;;
44189;SDS011;29856;52.144;5.430;2024-03-02T09:53:19;3.80;;;0.85;;
44189;SDS011;29856;52.144;5.430;2024-03-02T09:55:45;2.75;;;1.05;;
44189;SDS011;29856;52.144;5.430;2024-03-02T09:58:11;6.05;;;1.08;;
44189;SDS011;29856;52.144;5.430;2024-03-02T10:00:37;4.03;;;1.33;;
44189;SDS011;29856;52.144;5.430;2024-03-02T10:03:03;2.00;;;1.00;;
44189;SDS011;29856;52.144;5.430;2024-03-02T10:05:29;4.13;;;1.00;;
44189;SDS011;29856;52.144;5.430;2024-03-02T10:07:59;5.43;;;0.90;;
44189;SDS011;29856;52.144;5.430;2024-03-02T10:10:26;6.97;;;0.98;;
44189;SDS011;29856;52.144;5.430;2024-03-02T10:13:06;5.45;;;0.80;;
44189;SDS011;29856;52.144;5.430;2024-03-02T10:15:32;3.95;;;1.00;;
44189;SDS011;29856;52.144;5.430;2024-03-02T10:17:58;4.35;;;0.65;;
44189;SDS011;29856;52.144;5.430;2024-03-02T10:20:24;9.20;;;1.20;;
44189;SDS011;29856;52.144;5.430;2024-03-02T10:22:50;5.00;;;1.17;;
44189;SDS011;29856;52.144;5.430;2024-03-02T10:25:32;5.68;;;1.40;;
44189;SDS011;29856;52.144;5.430;2024-03-02T10:27:58;4.68;;;1.10;;
44189;SDS011;29856;52.144;5.430;2024-03-02T10:30:25;5.88;;;1.13;;
44189;SDS011;29856;52.144;5.430;2024-03-02T10:32:51;4.43;;;1.10;;
44189;SDS011;29856;52.144;5.430;2024-03-02T10:35:18;3.90;;;0.88;;
44189;SDS011;29856;52.144;5.430;2024-03-02T10:37:45;3.90;;;0.90;;
44189;SDS011;29856;52.144;5.430;2024-03-02T10:40:11;3.03;;;0.75;;
44189;SDS011;29856;52.144;5.430;2024-03-02T10:42:37;4.38;;;0.88;;
44189;SDS011;29856;52.144;5.430;2024-03-02T10:45:05;7.63;;;1.50;;
44189;SDS011;29856;52.144;5.430;2024-03-02T10:47:31;4.60;;;0.93;;
44189;SDS011;29856;52.144;5.430;2024-03-02T10:49:59;4.10;;;1.00;;
44189;SDS011;29856;52.144;5.430;2024-03-02T10:52:25;4.22;;;0.90;;
44189;SDS011;29856;52.144;5.430;2024-03-02T10:54:51;5.57;;;0.93;;
44189;SDS011;29856;52.144;5.430;2024-03-02T10:57:17;5.30;;;0.90;;
44189;SDS011;29856;52.144;5.430;2024-03-02T10:59:51;6.32;;;1.77;;
44189;SDS011;29856;52.144;5.430;2024-03-02T11:02:18;3.17;;;0.80;;
44189;SDS011;29856;52.144;5.430;2024-03-02T11:04:45;3.33;;;0.77;;
44189;SDS011;29856;52.144;5.430;2024-03-02T11:07:12;3.97;;;0.82;;
44189;SDS011;29856;52.144;5.430;2024-03-02T11:09:40;6.78;;;0.98;;
44189;SDS011;29856;52.144;5.430;2024-03-02T11:12:12;2.85;;;0.85;;
44189;SDS011;29856;52.144;5.430;2024-03-02T11:14:41;3.95;;;0.90;;
44189;SDS011;29856;52.144;5.430;2024-03-02T11:17:07;3.55;;;0.75;;
44189;SDS011;29856;52.144;5.430;2024-03-02T11:19:33;3.75;;;0.80;;
44189;SDS011;29856;52.144;5.430;2024-03-02T11:22:00;4.00;;;0.73;;
44189;SDS011;29856;52.144;5.430;2024-03-02T11:26:53;2.78;;;0.70;;
44189;SDS011;29856;52.144;5.430;2024-03-02T11:32:03;5.55;;;0.90;;
44189;SDS011;29856;52.144;5.430;2024-03-02T11:34:30;5.63;;;1.00;;
44189;SDS011;29856;52.144;5.430;2024-03-02T11:36:56;3.47;;;1.00;;
44189;SDS011;29856;52.144;5.430;2024-03-02T11:39:22;2.58;;;0.70;;
44189;SDS011;29856;52.144;5.430;2024-03-02T11:41:48;4.15;;;1.02;;
44189;SDS011;29856;52.144;5.430;2024-03-02T11:44:14;2.25;;;0.82;;
44189;SDS011;29856;52.144;5.430;2024-03-02T11:46:40;4.82;;;0.90;;
44189;SDS011;29856;52.144;5.430;2024-03-02T11:49:06;4.72;;;0.90;;
44189;SDS011;29856;52.144;5.430;2024-03-02T11:51:33;3.15;;;0.60;;
44189;SDS011;29856;52.144;5.430;2024-03-02T11:53:59;5.18;;;1.02;;
44189;SDS011;29856;52.144;5.430;2024-03-02T11:56:26;2.63;;;0.73;;
44189;SDS011;29856;52.144;5.430;2024-03-02T11:58:53;4.57;;;0.90;;
44189;SDS011;29856;52.144;5.430;2024-03-02T12:01:19;3.75;;;0.98;;
44189;SDS011;29856;52.144;5.430;2024-03-02T12:03:45;3.95;;;0.60;;
44189;SDS011;29856;52.144;5.430;2024-03-02T12:06:11;3.05;;;0.70;;
44189;SDS011;29856;52.144;5.430;2024-03-02T12:08:37;1.45;;;0.88;;
44189;SDS011;29856;52.144;5.430;2024-03-02T12:11:03;4.03;;;1.00;;
44189;SDS011;29856;52.144;5.430;2024-03-02T12:13:29;5.07;;;0.70;;
44189;SDS011;29856;52.144;5.430;2024-03-02T12:15:55;2.83;;;0.95;;
44189;SDS011;29856;52.144;5.430;2024-03-02T12:18:21;4.05;;;1.10;;
44189;SDS011;29856;52.144;5.430;2024-03-02T12:20:48;3.17;;;1.13;;
44189;SDS011;29856;52.144;5.430;2024-03-02T12:23:14;4.55;;;0.82;;
44189;SDS011;29856;52.144;5.430;2024-03-02T12:25:40;2.72;;;0.70;;
44189;SDS011;29856;52.144;5.430;2024-03-02T12:28:06;6.05;;;0.80;;
44189;SDS011;29856;52.144;5.430;2024-03-02T12:30:32;4.43;;;0.90;;
44189;SDS011;29856;52.144;5.430;2024-03-02T12:33:00;3.35;;;0.85;;
44189;SDS011;29856;52.144;5.430;2024-03-02T12:35:26;3.80;;;0.98;;
44189;SDS011;29856;52.144;5.430;2024-03-02T12:37:53;6.65;;;0.93;;
44189;SDS011;29856;52.144;5.430;2024-03-02T12:40:19;2.88;;;0.80;;
44189;SDS011;29856;52.144;5.430;2024-03-02T12:42:45;1.85;;;0.60;;
44189;SDS011;29856;52.144;5.430;2024-03-02T12:45:12;6.20;;;1.10;;
44189;SDS011;29856;52.144;5.430;2024-03-02T12:47:39;2.53;;;0.90;;
44189;SDS011;29856;52.144;5.430;2024-03-02T12:50:05;5.75;;;1.20;;
44189;SDS011;29856;52.144;5.430;2024-03-02T12:52:31;8.07;;;1.05;;
44189;SDS011;29856;52.144;5.430;2024-03-02T12:54:57;2.70;;;1.00;;
44189;SDS011;29856;52.144;5.430;2024-03-02T12:57:24;2.45;;;1.02;;
44189;SDS011;29856;52.144;5.430;2024-03-02T12:59:50;2.05;;;0.50;;
44189;SDS011;29856;52.144;5.430;2024-03-02T13:02:17;4.15;;;1.05;;
44189;SDS011;29856;52.144;5.430;2024-03-02T13:04:43;3.25;;;1.13;;
44189;SDS011;29856;52.144;5.430;2024-03-02T13:07:08;3.15;;;1.42;;
44189;SDS011;29856;52.144;5.430;2024-03-02T13:09:35;5.20;;;1.75;;
44189;SDS011;29856;52.144;5.430;2024-03-02T13:12:01;4.63;;;2.13;;
44189;SDS011;29856;52.144;5.430;2024-03-02T13:14:27;4.47;;;1.48;;
44189;SDS011;29856;52.144;5.430;2024-03-02T13:16:53;4.35;;;1.08;;
44189;SDS011;29856;52.144;5.430;2024-03-02T13:19:19;2.45;;;1.05;;
44189;SDS011;29856;52.144;5.430;2024-03-02T13:21:45;2.85;;;1.35;;
44189;SDS011;29856;52.144;5.430;2024-03-02T13:24:11;4.60;;;1.20;;
44189;SDS011;29856;52.144;5.430;2024-03-02T13:26:37;4.47;;;0.90;;
44189;SDS011;29856;52.144;5.430;2024-03-02T13:29:03;4.75;;;1.20;;
44189;SDS011;29856;52.144;5.430;2024-03-02T13:31:28;4.30;;;1.30;;
44189;SDS011;29856;52.144;5.430;2024-03-02T13:33:54;2.22;;;1.20;;
44189;SDS011;29856;52.144;5.430;2024-03-02T13:36:20;4.47;;;1.20;;
44189;SDS011;29856;52.144;5.430;2024-03-02T13:38:46;2.75;;;1.23;;
44189;SDS011;29856;52.144;5.430;2024-03-02T13:41:12;7.03;;;1.00;;
44189;SDS011;29856;52.144;5.430;2024-03-02T13:43:38;3.97;;;0.98;;
44189;SDS011;29856;52.144;5.430;2024-03-02T13:46:04;3.33;;;0.88;;
44189;SDS011;29856;52.144;5.430;2024-03-02T13:48:30;2.72;;;1.10;;
44189;SDS011;29856;52.144;5.430;2024-03-02T13:50:55;5.07;;;1.90;;
44189;SDS011;29856;52.144;5.430;2024-03-02T13:53:21;6.13;;;1.33;;
44189;SDS011;29856;52.144;5.430;2024-03-02T13:55:47;5.05;;;1.48;;
44189;SDS011;29856;52.144;5.430;2024-03-02T13:58:13;7.00;;;1.38;;
44189;SDS011;29856;52.144;5.430;2024-03-02T14:00:39;4.45;;;1.67;;
44189;SDS011;29856;52.144;5.430;2024-03-02T14:03:05;3.20;;;0.95;;
44189;SDS011;29856;52.144;5.430;2024-03-02T14:05:31;5.22;;;1.42;;
44189;SDS011;29856;52.144;5.430;2024-03-02T14:07:57;5.78;;;1.40;;
44189;SDS011;29856;52.144;5.430;2024-03-02T14:10:23;3.38;;;1.40;;
44189;SDS011;29856;52.144;5.430;2024-03-02T14:12:49;5.53;;;1.63;;
44189;SDS011;29856;52.144;5.430;2024-03-02T14:15:15;2.35;;;1.25;;
44189;SDS011;29856;52.144;5.430;2024-03-02T14:17:41;4.07;;;1.20;;
44189;SDS011;29856;52.144;5.430;2024-03-02T14:20:07;2.90;;;1.75;;
44189;SDS011;29856;52.144;5.430;2024-03-02T14:22:33;5.85;;;1.50;;
44189;SDS011;29856;52.144;5.430;2024-03-02T14:24:59;3.45;;;1.15;;
44189;SDS011;29856;52.144;5.430;2024-03-02T14:27:25;4.88;;;1.60;;
44189;SDS011;29856;52.144;5.430;2024-03-02T14:29:50;4.72;;;1.85;;
44189;SDS011;29856;52.144;5.430;2024-03-02T14:32:16;6.47;;;1.45;;
44189;SDS011;29856;52.144;5.430;2024-03-02T14:34:42;3.65;;;1.17;;
44189;SDS011;29856;52.144;5.430;2024-03-02T14:37:08;2.72;;;0.98;;
44189;SDS011;29856;52.144;5.430;2024-03-02T14:39:34;3.42;;;0.90;;
44189;SDS011;29856;52.144;5.430;2024-03-02T14:42:00;5.95;;;1.30;;
44189;SDS011;29856;52.144;5.430;2024-03-02T14:44:26;5.35;;;0.93;;
44189;SDS011;29856;52.144;5.430;2024-03-02T14:46:52;5.72;;;1.20;;
44189;SDS011;29856;52.144;5.430;2024-03-02T14:49:18;4.10;;;1.00;;